createdAt,value
2018-04-06T00:03:26.698Z,3.83
2018-04-06T00:07:29.230Z,3.90
2018-04-06T00:11:32.525Z,4.60
2018-04-06T00:15:35.810Z,4.90
2018-04-06T00:19:38.330Z,3.80
2018-04-06T00:23:40.865Z,4.10
2018-04-06T00:27:43.393Z,4.10
2018-04-06T00:31:46.697Z,4.27
2018-04-06T00:35:49.965Z,3.40
2018-04-06T00:39:52.488Z,3.63
2018-04-06T00:43:55.004Z,4.20
2018-04-06T00:47:57.549Z,3.97
2018-04-06T00:52:00.850Z,3.73
2018-04-06T00:56:03.353Z,3.90
2018-04-06T01:00:05.883Z,4.47
2018-04-06T01:04:08.417Z,4.37
2018-04-06T01:08:10.960Z,3.90
2018-04-06T01:12:13.542Z,4.03
2018-04-06T01:16:16.073Z,4.40
2018-04-06T01:20:18.585Z,4.27
2018-04-06T01:24:21.108Z,4.53
2018-04-06T01:28:23.632Z,5.07
2018-04-06T01:32:26.165Z,4.13
2018-04-06T01:36:28.703Z,4.13
2018-04-06T01:40:31.295Z,3.70
2018-04-06T01:44:33.828Z,4.20
2018-04-06T01:48:36.356Z,5.00
2018-04-06T01:52:38.882Z,5.57
2018-04-06T01:56:41.444Z,4.17
2018-04-06T02:00:43.960Z,4.80
2018-04-06T02:04:46.482Z,4.70
2018-04-06T02:08:49.781Z,6.20
2018-04-06T02:12:52.313Z,4.50
2018-04-06T02:16:54.837Z,5.43
2018-04-06T02:20:58.114Z,4.97
2018-04-06T02:25:00.645Z,5.23
2018-04-06T02:29:03.178Z,5.33
2018-04-06T02:33:05.713Z,4.93
2018-04-06T02:37:08.222Z,5.43
2018-04-06T02:41:10.766Z,6.10
2018-04-06T02:45:13.307Z,5.23
2018-04-06T02:49:15.844Z,4.83
2018-04-06T02:53:18.385Z,5.23
2018-04-06T02:57:20.906Z,4.90
2018-04-06T03:01:24.196Z,5.90
2018-04-06T03:05:26.725Z,5.13
2018-04-06T03:09:29.280Z,5.27
2018-04-06T03:13:32.606Z,4.87
2018-04-06T03:17:35.153Z,4.83
2018-04-06T03:21:37.704Z,5.13
2018-04-06T03:25:40.246Z,5.37
2018-04-06T03:29:43.067Z,4.77
2018-04-06T03:33:45.625Z,5.47
2018-04-06T03:37:48.148Z,4.77
2018-04-06T03:41:50.673Z,4.70
2018-04-06T03:45:53.201Z,4.47
2018-04-06T03:49:56.134Z,4.23
2018-04-06T03:53:59.454Z,4.10
2018-04-06T03:58:02.758Z,4.83
2018-04-06T04:02:06.092Z,5.70
2018-04-06T04:06:08.677Z,4.90
2018-04-06T04:10:11.208Z,4.47
2018-04-06T04:14:13.712Z,4.87
2018-04-06T04:18:16.233Z,5.87
2018-04-06T04:22:18.778Z,5.27
2018-04-06T04:26:21.316Z,4.70
2018-04-06T04:30:23.838Z,5.67
2018-04-06T04:34:26.353Z,4.70
2018-04-06T04:38:28.906Z,4.50
2018-04-06T04:42:31.468Z,4.93
2018-04-06T04:46:33.985Z,4.30
2018-04-06T04:50:36.521Z,3.93
2018-04-06T04:54:39.025Z,4.33
2018-04-06T04:58:41.552Z,5.03
2018-04-06T05:02:44.091Z,5.63
2018-04-06T05:06:46.621Z,4.43
2018-04-06T05:10:49.949Z,5.13
2018-04-06T05:14:52.458Z,4.73
2018-04-06T05:18:54.981Z,5.43
2018-04-06T05:22:57.520Z,5.23
2018-04-06T05:27:00.044Z,5.93
2018-04-06T05:31:02.555Z,5.87
2018-04-06T05:35:05.863Z,5.60
2018-04-06T05:39:09.154Z,6.10
2018-04-06T05:43:12.448Z,6.30
2018-04-06T05:47:14.976Z,8.07
2018-04-06T05:51:17.485Z,9.93
2018-04-06T05:55:20.014Z,6.90
2018-04-06T05:59:23.309Z,6.90
2018-04-06T06:03:26.602Z,6.40
2018-04-06T06:07:29.120Z,6.60
2018-04-06T06:11:31.632Z,6.57
2018-04-06T06:15:34.156Z,6.77
2018-04-06T06:19:36.689Z,6.20
2018-04-06T06:23:39.310Z,5.93
2018-04-06T06:27:41.829Z,6.60
2018-04-06T06:31:44.375Z,6.53
2018-04-06T06:35:46.901Z,5.80
2018-04-06T06:39:49.429Z,5.67
2018-04-06T06:43:51.945Z,6.03
2018-04-06T06:47:54.640Z,5.50
2018-04-06T06:51:57.145Z,5.33
2018-04-06T06:56:00.448Z,5.50
2018-04-06T07:00:03.857Z,5.60
2018-04-06T07:04:07.622Z,5.87
2018-04-06T07:08:10.938Z,5.33
2018-04-06T07:12:13.570Z,5.23
2018-04-06T07:16:16.103Z,6.00
2018-04-06T07:20:18.624Z,7.37
2018-04-06T07:24:21.912Z,5.33
2018-04-06T07:28:24.432Z,4.50
2018-04-06T07:32:26.944Z,4.90
2018-04-06T07:36:29.490Z,3.90
2018-04-06T07:40:32.013Z,4.87
2018-04-06T07:44:34.542Z,4.83
2018-04-06T07:48:38.431Z,4.63
2018-04-06T07:52:40.988Z,4.17
2018-04-06T07:56:43.529Z,4.20
2018-04-06T08:00:46.817Z,4.43
2018-04-06T08:04:49.345Z,4.17
2018-04-06T08:08:51.877Z,3.83
2018-04-06T08:12:56.037Z,4.00
2018-04-06T08:17:00.212Z,3.80
2018-04-06T08:21:04.400Z,4.20
2018-04-06T08:25:08.580Z,3.67
2018-04-06T08:29:12.770Z,3.70
2018-04-06T08:33:16.944Z,3.70
2018-04-06T08:37:21.092Z,3.30
2018-04-06T08:41:25.268Z,4.50
2018-04-06T08:45:29.442Z,4.17
2018-04-06T08:49:33.623Z,3.93
2018-04-06T08:53:37.803Z,3.70
2018-04-06T08:57:41.955Z,4.10
2018-04-06T09:01:46.127Z,3.80
2018-04-06T09:05:50.306Z,3.73
2018-04-06T09:09:54.482Z,3.53
2018-04-06T09:13:59.360Z,3.73
2018-04-06T09:18:03.517Z,3.20
2018-04-06T09:22:07.691Z,2.80
2018-04-06T09:26:11.872Z,3.27
2018-04-06T09:30:16.100Z,3.17
2018-04-06T09:34:20.292Z,3.27
2018-04-06T09:38:24.440Z,3.13
2018-04-06T09:42:28.612Z,2.70
2018-04-06T09:46:32.782Z,2.73
2018-04-06T09:50:36.964Z,3.40
2018-04-06T09:54:41.146Z,2.40
2018-04-06T09:58:45.335Z,2.53
2018-04-06T10:02:49.546Z,2.57
2018-04-06T10:06:53.698Z,3.10
2018-04-06T10:10:57.879Z,2.73
2018-04-06T10:15:02.080Z,2.80
2018-04-06T10:19:06.247Z,2.33
2018-04-06T10:23:10.408Z,2.93
2018-04-06T10:27:14.594Z,2.90
2018-04-06T10:31:18.776Z,2.33
2018-04-06T10:35:22.939Z,3.10
2018-04-06T10:39:27.116Z,3.07
2018-04-06T10:43:31.285Z,2.30
2018-04-06T10:47:35.451Z,2.67
2018-04-06T10:51:39.625Z,1.97
2018-04-06T10:55:43.796Z,2.10
2018-04-06T10:59:47.972Z,3.00
2018-04-06T11:03:52.974Z,2.87
2018-04-06T11:07:57.148Z,2.53
2018-04-06T11:12:01.317Z,2.27
2018-04-06T11:16:05.488Z,2.10
2018-04-06T11:20:09.665Z,2.30
2018-04-06T11:24:13.840Z,2.17
2018-04-06T11:28:17.991Z,2.20
2018-04-06T11:32:22.164Z,1.80
2018-04-06T11:36:26.342Z,1.63
2018-04-06T11:40:30.516Z,1.67
2018-04-06T11:44:34.690Z,2.00
2018-04-06T11:48:38.841Z,2.10
2018-04-06T11:52:43.031Z,2.03
2018-04-06T11:56:47.208Z,1.40
2018-04-06T12:00:51.389Z,2.00
2018-04-06T12:04:55.559Z,1.70
2018-04-06T12:09:00.448Z,2.30
2018-04-06T12:13:04.666Z,2.00
2018-04-06T12:17:08.834Z,2.73
2018-04-06T12:21:13.015Z,2.27
2018-04-06T12:25:17.204Z,2.93
2018-04-06T12:29:21.360Z,2.17
2018-04-06T12:33:25.535Z,2.20
2018-04-06T12:37:29.746Z,2.17
2018-04-06T12:41:33.917Z,2.23
2018-04-06T12:45:38.096Z,2.43
2018-04-06T12:49:42.271Z,2.37
2018-04-06T12:53:46.431Z,2.37
2018-04-06T12:57:50.605Z,2.47
2018-04-06T13:01:54.778Z,2.10
2018-04-06T13:05:58.954Z,2.20
2018-04-06T13:10:03.136Z,2.30
2018-04-06T13:14:07.297Z,2.40
2018-04-06T13:18:11.473Z,2.03
2018-04-06T13:22:15.896Z,2.10
2018-04-06T13:26:20.100Z,2.47
2018-04-06T13:30:24.283Z,2.13
2018-04-06T13:34:28.444Z,2.13
2018-04-06T13:38:32.628Z,2.00
2018-04-06T13:42:36.801Z,1.73
2018-04-06T13:46:40.979Z,1.77
2018-04-06T13:50:45.152Z,1.80
2018-04-06T13:54:49.324Z,2.70
2018-04-06T13:58:53.495Z,1.70
2018-04-06T14:02:57.663Z,1.50
2018-04-06T14:07:01.865Z,2.43
2018-04-06T14:11:06.044Z,1.70
2018-04-06T14:15:10.254Z,2.07
2018-04-06T14:19:14.399Z,2.00
2018-04-06T14:23:18.568Z,2.20
2018-04-06T14:27:22.736Z,2.10
2018-04-06T14:31:26.922Z,1.80
2018-04-06T14:35:31.100Z,2.00
2018-04-06T14:39:35.257Z,1.90
2018-04-06T14:43:39.444Z,2.10
2018-04-06T14:47:43.620Z,2.17
2018-04-06T14:51:47.813Z,1.90
2018-04-06T14:55:51.984Z,2.10
2018-04-06T14:59:56.141Z,1.97
2018-04-06T15:04:00.336Z,2.17
2018-04-06T15:08:04.507Z,1.87
2018-04-06T15:12:08.682Z,2.13
2018-04-06T15:16:12.869Z,1.83
2018-04-06T15:20:17.030Z,1.60
2018-04-06T15:24:21.208Z,1.83
2018-04-06T15:28:25.389Z,1.70
2018-04-06T15:32:29.573Z,1.70
2018-04-06T15:36:33.739Z,1.90
2018-04-06T15:40:37.920Z,2.43
2018-04-06T15:44:42.083Z,1.73
2018-04-06T15:48:46.251Z,1.73
2018-04-06T15:52:50.428Z,4.73
2018-04-06T15:56:54.604Z,2.40
2018-04-06T16:00:59.554Z,2.00
2018-04-06T16:05:03.713Z,1.83
2018-04-06T16:09:07.892Z,1.97
2018-04-06T16:13:12.078Z,2.50
2018-04-06T16:17:16.271Z,3.27
2018-04-06T16:21:20.444Z,3.10
2018-04-06T16:25:24.595Z,3.90
2018-04-06T16:29:28.785Z,3.50
2018-04-06T16:33:32.956Z,3.23
2018-04-06T16:37:37.236Z,2.40
2018-04-06T16:41:41.424Z,2.53
2018-04-06T16:45:45.602Z,2.53
2018-04-06T16:49:49.780Z,3.67
2018-04-06T16:53:53.962Z,3.90
2018-04-06T16:57:58.129Z,4.20
2018-04-06T17:02:02.302Z,4.80
2018-04-06T17:06:04.833Z,4.13
2018-04-06T17:10:08.112Z,3.80
2018-04-06T17:14:11.401Z,4.37
2018-04-06T17:18:14.708Z,4.37
2018-04-06T17:22:18.026Z,4.00
2018-04-06T17:26:20.569Z,4.70
2018-04-06T17:30:23.073Z,4.70
2018-04-06T17:34:25.598Z,4.00
2018-04-06T17:38:28.137Z,4.33
2018-04-06T17:42:30.664Z,4.40
2018-04-06T17:46:33.186Z,4.30
2018-04-06T17:50:35.707Z,4.00
2018-04-06T17:54:39.001Z,4.27
2018-04-06T17:58:42.297Z,4.33
2018-04-06T18:02:44.836Z,4.37
2018-04-06T18:06:47.396Z,4.13
2018-04-06T18:10:49.913Z,4.33
2018-04-06T18:14:52.441Z,4.40
2018-04-06T18:18:55.736Z,5.13
2018-04-06T18:22:58.261Z,4.10
2018-04-06T18:27:00.792Z,5.32
2018-04-06T18:31:03.305Z,5.37
2018-04-06T18:35:05.857Z,4.77
2018-04-06T18:39:08.445Z,4.33
2018-04-06T18:43:10.969Z,4.30
2018-04-06T18:47:14.303Z,4.30
2018-04-06T18:51:16.814Z,4.67
2018-04-06T18:55:19.339Z,4.63
2018-04-06T18:59:22.674Z,4.77
2018-04-06T19:03:25.240Z,4.70
2018-04-06T19:07:27.822Z,4.87
2018-04-06T19:11:30.356Z,5.17
2018-04-06T19:15:32.910Z,5.23
2018-04-06T19:19:35.458Z,5.60
2018-04-06T19:23:38.777Z,6.17
2018-04-06T19:27:41.322Z,6.07
2018-04-06T19:31:43.880Z,5.90
2018-04-06T19:35:46.389Z,5.60
2018-04-06T19:39:48.921Z,5.10
2018-04-06T19:43:51.455Z,4.97
2018-04-06T19:47:53.997Z,5.27
2018-04-06T19:51:56.520Z,4.80
2018-04-06T19:55:59.026Z,5.23
2018-04-06T20:00:01.554Z,5.00
2018-04-06T20:04:04.097Z,4.73
2018-04-06T20:08:07.406Z,4.87
2018-04-06T20:12:09.951Z,3.83
2018-04-06T20:16:12.481Z,4.70
2018-04-06T20:20:15.778Z,4.53
2018-04-06T20:24:18.309Z,4.20
2018-04-06T20:28:20.891Z,4.43
2018-04-06T20:32:24.166Z,4.43
2018-04-06T20:36:27.460Z,4.70
2018-04-06T20:40:30.004Z,4.97
2018-04-06T20:44:32.545Z,4.30
2018-04-06T20:48:35.107Z,4.07
2018-04-06T20:52:37.668Z,4.03
2018-04-06T20:56:40.191Z,4.20
2018-04-06T21:00:42.744Z,4.20
2018-04-06T21:04:45.306Z,4.07
2018-04-06T21:08:47.836Z,3.80
2018-04-06T21:12:51.132Z,4.40
2018-04-06T21:16:53.657Z,3.83
2018-04-06T21:20:56.201Z,4.30
2018-04-06T21:24:58.728Z,4.50
2018-04-06T21:29:02.035Z,4.10
2018-04-06T21:33:04.577Z,3.77
2018-04-06T21:37:07.097Z,3.77
2018-04-06T21:41:09.641Z,4.30
2018-04-06T21:45:12.170Z,3.90
2018-04-06T21:49:14.812Z,3.80
2018-04-06T21:53:17.359Z,3.60
2018-04-06T21:57:19.878Z,3.93
2018-04-06T22:01:22.444Z,3.90
2018-04-06T22:05:25.786Z,3.87
2018-04-06T22:09:28.333Z,3.50
2018-04-06T22:13:31.777Z,3.60
2018-04-06T22:17:35.100Z,3.23
2018-04-06T22:21:37.605Z,3.57
2018-04-06T22:25:40.137Z,3.13
2018-04-06T22:29:42.789Z,3.00
2018-04-06T22:33:45.323Z,3.30
2018-04-06T22:37:48.620Z,3.10
2018-04-06T22:41:51.898Z,3.13
2018-04-06T22:45:54.433Z,2.93
2018-04-06T22:49:56.977Z,3.10
2018-04-06T22:53:59.516Z,3.23
2018-04-06T22:58:02.050Z,3.10
2018-04-06T23:02:04.562Z,3.10
2018-04-06T23:06:07.085Z,3.23
2018-04-06T23:10:09.626Z,3.30
2018-04-06T23:14:13.433Z,3.57
2018-04-06T23:18:16.728Z,3.20
2018-04-06T23:22:19.238Z,3.17
2018-04-06T23:26:21.761Z,3.23
2018-04-06T23:30:24.294Z,3.07
2018-04-06T23:34:27.584Z,3.53
2018-04-06T23:38:30.878Z,3.33
2018-04-06T23:42:33.385Z,3.40
2018-04-06T23:46:36.682Z,3.20
2018-04-06T23:50:39.978Z,3.50
2018-04-06T23:54:43.269Z,3.33
2018-04-06T23:58:45.793Z,3.50
